createdAt,value
2023-03-27T00:01:13.105Z,4.40
2023-03-27T00:03:40.951Z,4.50
2023-03-27T00:06:16.639Z,4.47
2023-03-27T00:08:46.307Z,4.97
2023-03-27T00:11:14.669Z,4.90
2023-03-27T00:13:49.647Z,4.47
2023-03-27T00:16:23.892Z,4.47
2023-03-27T00:18:51.481Z,4.90
2023-03-27T00:21:19.227Z,4.30
2023-03-27T00:23:46.749Z,5.10
2023-03-27T00:26:14.272Z,4.57
2023-03-27T00:28:42.083Z,5.27
2023-03-27T00:31:14.961Z,5.37
2023-03-27T00:33:42.701Z,4.77
2023-03-27T00:36:10.643Z,4.90
2023-03-27T00:38:39.631Z,5.13
2023-03-27T00:41:08.171Z,5.33
2023-03-27T00:43:42.482Z,4.73
2023-03-27T00:46:22.785Z,5.37
2023-03-27T00:48:52.850Z,5.10
2023-03-27T00:51:23.714Z,4.63
2023-03-27T00:53:52.827Z,5.17
2023-03-27T00:56:21.734Z,4.97
2023-03-27T00:58:57.211Z,4.50
2023-03-27T01:01:27.606Z,5.13
2023-03-27T01:03:59.417Z,4.90
2023-03-27T01:06:27.288Z,4.47
2023-03-27T01:08:54.686Z,5.07
2023-03-27T01:11:46.709Z,4.83
2023-03-27T01:14:38.240Z,4.23
2023-03-27T01:17:38.159Z,4.73
2023-03-27T01:20:32.342Z,4.77
2023-03-27T01:23:58.587Z,4.50
2023-03-27T01:26:18.678Z,3.67
2023-03-27T01:29:37.637Z,5.43
2023-03-27T01:32:29.529Z,4.53
2023-03-27T01:35:27.349Z,4.93
2023-03-27T01:38:25.146Z,4.67
2023-03-27T01:41:08.560Z,4.63
2023-03-27T01:43:48.666Z,4.40
2023-03-27T01:46:29.727Z,4.53
2023-03-27T01:49:02.278Z,4.50
2023-03-27T01:51:36.362Z,3.63
2023-03-27T01:54:24.803Z,3.83
2023-03-27T01:57:02.285Z,4.03
2023-03-27T01:59:35.770Z,4.30
2023-03-27T02:02:14.100Z,3.70
2023-03-27T02:04:46.973Z,4.40
2023-03-27T02:07:20.756Z,4.67
2023-03-27T02:09:53.985Z,3.60
2023-03-27T02:12:29.836Z,3.53
2023-03-27T02:15:24.022Z,3.73
2023-03-27T02:18:05.487Z,3.70
2023-03-27T02:20:34.565Z,4.10
2023-03-27T02:23:02.204Z,4.10
2023-03-27T02:25:40.998Z,4.27
2023-03-27T02:28:14.581Z,3.77
2023-03-27T02:31:06.787Z,4.07
2023-03-27T02:33:47.858Z,3.80
2023-03-27T02:36:30.215Z,3.80
2023-03-27T02:39:11.622Z,3.90
2023-03-27T02:41:58.287Z,4.53
2023-03-27T02:45:06.849Z,3.93
2023-03-27T02:47:36.883Z,4.10
2023-03-27T02:50:13.526Z,3.80
2023-03-27T02:52:48.082Z,3.97
2023-03-27T02:55:35.468Z,4.30
2023-03-27T02:58:08.056Z,4.40
2023-03-27T03:01:00.885Z,4.30
2023-03-27T03:03:53.468Z,4.17
2023-03-27T03:06:36.564Z,4.17
2023-03-27T03:09:05.888Z,3.97
2023-03-27T03:11:39.331Z,4.33
2023-03-27T03:14:06.632Z,3.97
2023-03-27T03:16:34.424Z,4.10
2023-03-27T03:19:03.134Z,3.87
2023-03-27T03:21:31.862Z,4.23
2023-03-27T03:24:00.105Z,3.57
2023-03-27T03:26:27.996Z,4.27
2023-03-27T03:29:00.084Z,3.37
2023-03-27T03:31:42.938Z,3.60
2023-03-27T03:34:18.274Z,3.80
2023-03-27T03:36:49.552Z,4.00
2023-03-27T03:39:22.554Z,3.53
2023-03-27T03:41:51.011Z,3.73
2023-03-27T03:44:19.188Z,3.60
2023-03-27T03:46:46.579Z,3.93
2023-03-27T03:49:17.409Z,3.57
2023-03-27T03:51:44.819Z,3.97
2023-03-27T03:54:12.196Z,3.50
2023-03-27T03:56:43.150Z,4.47
2023-03-27T03:59:11.765Z,3.13
2023-03-27T04:01:58.309Z,3.40
2023-03-27T04:04:30.800Z,3.90
2023-03-27T04:07:07.077Z,4.37
2023-03-27T04:09:38.464Z,3.60
2023-03-27T04:12:09.849Z,3.43
2023-03-27T04:14:54.361Z,3.43
2023-03-27T04:17:40.671Z,3.73
2023-03-27T04:20:12.927Z,3.30
2023-03-27T04:22:48.461Z,3.93
2023-03-27T04:25:17.848Z,3.27
2023-03-27T04:27:46.130Z,3.90
2023-03-27T04:30:23.803Z,3.60
2023-03-27T04:33:18.336Z,4.10
2023-03-27T04:36:08.839Z,3.40
2023-03-27T04:38:45.474Z,3.93
2023-03-27T04:41:15.206Z,3.50
2023-03-27T04:43:42.894Z,4.23
2023-03-27T04:46:10.209Z,4.30
2023-03-27T04:48:39.208Z,4.10
2023-03-27T04:51:19.961Z,3.87
2023-03-27T04:53:47.238Z,3.97
2023-03-27T04:56:15.200Z,3.90
2023-03-27T04:58:46.304Z,3.90
2023-03-27T05:01:17.498Z,4.00
2023-03-27T05:04:03.923Z,3.97
2023-03-27T05:06:41.214Z,4.60
2023-03-27T05:09:13.564Z,3.80
2023-03-27T05:11:41.123Z,4.90
2023-03-27T05:14:10.459Z,3.63
2023-03-27T05:16:40.362Z,3.80
2023-03-27T05:19:07.773Z,3.93
2023-03-27T05:21:42.445Z,3.60
2023-03-27T05:24:11.273Z,3.37
2023-03-27T05:26:39.794Z,3.33
2023-03-27T05:29:08.952Z,3.30
2023-03-27T05:31:40.241Z,3.93
2023-03-27T05:34:27.078Z,3.23
2023-03-27T05:36:57.719Z,4.07
2023-03-27T05:39:26.253Z,3.43
2023-03-27T05:41:54.061Z,3.80
2023-03-27T05:44:23.558Z,3.80
2023-03-27T05:46:51.449Z,4.00
2023-03-27T05:49:24.859Z,3.50
2023-03-27T05:51:58.116Z,3.10
2023-03-27T05:54:25.558Z,3.90
2023-03-27T05:56:57.392Z,4.30
2023-03-27T05:59:25.902Z,4.40
2023-03-27T06:01:58.829Z,4.30
2023-03-27T06:04:34.778Z,3.50
2023-03-27T06:07:07.266Z,4.10
2023-03-27T06:09:36.240Z,4.33
2023-03-27T06:12:23.913Z,3.63
2023-03-27T06:14:57.370Z,3.90
2023-03-27T06:17:57.468Z,3.67
2023-03-27T06:20:26.208Z,4.20
2023-03-27T06:22:56.768Z,4.00
2023-03-27T06:31:42.970Z,3.70
2023-03-27T06:34:19.440Z,4.60
2023-03-27T06:36:54.417Z,4.23
2023-03-27T06:39:22.005Z,3.90
2023-03-27T06:41:52.563Z,3.30
2023-03-27T06:44:27.470Z,4.47
2023-03-27T06:47:16.090Z,3.93
2023-03-27T06:50:02.335Z,4.13
2023-03-27T06:52:34.430Z,3.73
2023-03-27T06:55:25.911Z,3.87
2023-03-27T06:57:56.852Z,4.07
2023-03-27T07:00:28.902Z,4.30
2023-03-27T07:03:22.766Z,3.90
2023-03-27T07:06:09.177Z,4.27
2023-03-27T07:09:00.124Z,4.17
2023-03-27T07:11:29.473Z,3.97
2023-03-27T07:14:01.620Z,3.63
2023-03-27T07:16:32.914Z,3.97
2023-03-27T07:19:02.526Z,4.40
2023-03-27T07:21:32.775Z,4.03
2023-03-27T07:24:00.867Z,4.10
2023-03-27T07:26:34.108Z,3.67
2023-03-27T07:29:10.950Z,3.40
2023-03-27T07:31:55.339Z,3.50
2023-03-27T07:34:31.769Z,4.03
2023-03-27T07:37:22.623Z,3.60
2023-03-27T07:40:13.777Z,3.87
2023-03-27T07:42:46.027Z,3.67
2023-03-27T07:45:22.013Z,4.30
2023-03-27T07:47:52.127Z,4.27
2023-03-27T07:50:21.666Z,4.00
2023-03-27T07:52:49.629Z,4.20
2023-03-27T07:55:18.871Z,4.10
2023-03-27T07:58:01.424Z,4.17
2023-03-27T08:00:35.158Z,3.90
2023-03-27T08:03:14.008Z,3.83
2023-03-27T08:05:56.535Z,4.23
2023-03-27T08:08:26.381Z,4.20
2023-03-27T08:10:59.812Z,4.00
2023-03-27T08:13:31.267Z,3.90
2023-03-27T08:16:08.693Z,4.00
2023-03-27T08:18:37.973Z,3.50
2023-03-27T08:21:08.582Z,3.30
2023-03-27T08:23:37.516Z,3.13
2023-03-27T08:26:23.858Z,3.50
2023-03-27T08:28:56.421Z,3.50
2023-03-27T08:31:30.915Z,3.47
2023-03-27T08:34:04.431Z,2.77
2023-03-27T08:36:45.627Z,3.83
2023-03-27T08:39:14.650Z,3.47
2023-03-27T08:41:55.196Z,3.67
2023-03-27T08:44:35.099Z,3.63
2023-03-27T08:47:28.098Z,3.10
2023-03-27T08:50:07.102Z,3.37
2023-03-27T08:52:50.254Z,3.33
2023-03-27T08:55:46.952Z,3.83
2023-03-27T08:58:34.535Z,3.67
2023-03-27T09:01:30.239Z,3.80
2023-03-27T09:04:19.913Z,3.37
2023-03-27T09:07:06.530Z,3.87
2023-03-27T09:10:09.307Z,3.80
2023-03-27T09:13:22.922Z,3.60
2023-03-27T09:16:11.656Z,3.70
2023-03-27T09:18:44.340Z,3.70
2023-03-27T09:21:22.947Z,3.60
2023-03-27T09:23:54.084Z,3.13
2023-03-27T09:27:06.617Z,3.00
2023-03-27T09:29:45.475Z,3.17
2023-03-27T09:32:43.693Z,2.60
2023-03-27T09:35:15.970Z,3.07
2023-03-27T09:37:44.474Z,3.10
2023-03-27T09:40:23.539Z,2.97
2023-03-27T09:42:54.577Z,2.67
2023-03-27T09:45:23.048Z,2.90
2023-03-27T09:48:07.572Z,3.47
2023-03-27T09:50:44.543Z,3.30
2023-03-27T09:53:30.723Z,3.13
2023-03-27T09:56:16.394Z,3.07
2023-03-27T09:58:53.829Z,2.57
2023-03-27T10:01:37.754Z,3.23
2023-03-27T10:04:22.891Z,2.73
2023-03-27T10:07:01.730Z,2.87
2023-03-27T10:09:43.093Z,3.40
2023-03-27T10:12:18.705Z,3.07
2023-03-27T10:14:52.687Z,2.63
2023-03-27T10:17:27.315Z,2.77
2023-03-27T10:20:11.191Z,3.47
2023-03-27T10:22:43.525Z,2.80
2023-03-27T10:25:27.167Z,2.17
2023-03-27T10:28:14.681Z,2.90
2023-03-27T10:31:33.775Z,2.73
2023-03-27T10:34:37.494Z,2.43
2023-03-27T10:37:30.426Z,2.60
2023-03-27T10:40:21.412Z,2.80
2023-03-27T10:43:01.616Z,2.97
2023-03-27T10:45:32.365Z,3.00
2023-03-27T10:48:01.878Z,2.73
2023-03-27T10:50:53.132Z,2.50
2023-03-27T11:19:46.441Z,3.07
2023-03-27T11:22:43.535Z,2.50
2023-03-27T11:25:31.822Z,2.40
2023-03-27T11:28:21.170Z,3.20
2023-03-27T11:30:56.081Z,3.30
2023-03-27T11:33:43.881Z,3.07
2023-03-27T11:36:32.310Z,3.27
2023-03-27T11:39:22.550Z,2.60
2023-03-27T11:41:57.709Z,3.20
2023-03-27T11:44:26.456Z,2.30
2023-03-27T12:08:48.372Z,2.50
2023-03-27T12:37:31.509Z,2.33
2023-03-27T12:40:02.495Z,2.50
2023-03-27T12:42:49.725Z,2.63
2023-03-27T12:45:23.960Z,2.50
2023-03-27T13:26:33.376Z,2.30
2023-03-27T13:29:25.462Z,2.20
2023-03-27T13:32:07.454Z,1.90
2023-03-27T13:35:21.679Z,2.17
2023-03-27T13:37:49.734Z,2.50
2023-03-27T13:40:27.131Z,2.33
2023-03-27T13:43:30.881Z,2.60
2023-03-27T13:46:16.201Z,2.47
2023-03-27T13:49:18.021Z,2.70
2023-03-27T13:52:15.944Z,1.93
2023-03-27T13:54:50.068Z,1.90
2023-03-27T13:57:29.953Z,2.20
2023-03-27T14:00:38.445Z,2.13
2023-03-27T14:03:30.936Z,2.40
2023-03-27T14:06:27.512Z,2.30
2023-03-27T14:09:31.844Z,2.60
2023-03-27T14:12:41.199Z,2.20
2023-03-27T14:15:38.842Z,2.43
2023-03-27T14:18:59.766Z,2.40
2023-03-27T14:21:38.411Z,2.30
2023-03-27T14:24:28.818Z,2.03
2023-03-27T14:27:10.121Z,2.60
2023-03-27T14:29:38.109Z,2.70
2023-03-27T14:32:06.698Z,2.77
2023-03-27T14:34:47.365Z,2.50
2023-03-27T14:37:38.845Z,2.80
2023-03-27T14:40:28.319Z,2.93
2023-03-27T14:43:01.133Z,2.37
2023-03-27T14:45:39.345Z,2.47
2023-03-27T14:48:10.011Z,2.30
2023-03-27T14:50:51.662Z,2.40
2023-03-27T14:53:28.373Z,2.40
2023-03-27T14:56:11.900Z,2.40
2023-03-27T14:58:59.846Z,2.63
2023-03-27T15:01:36.037Z,2.97
2023-03-27T15:04:07.489Z,2.60
2023-03-27T15:06:37.700Z,2.90
2023-03-27T15:09:19.390Z,3.00
2023-03-27T15:12:05.712Z,2.43
2023-03-27T15:14:35.491Z,2.70
2023-03-27T15:17:14.901Z,2.47
2023-03-27T15:19:50.775Z,2.70
2023-03-27T15:22:27.612Z,2.60
2023-03-27T15:25:17.843Z,3.00
2023-03-27T15:27:53.139Z,2.63
2023-03-27T15:30:45.061Z,2.63
2023-03-27T15:33:23.206Z,3.10
2023-03-27T15:35:56.118Z,2.93
2023-03-27T15:38:29.121Z,2.70
2023-03-27T15:41:14.900Z,2.70
2023-03-27T15:43:43.970Z,2.70
2023-03-27T15:46:19.071Z,2.73
2023-03-27T15:48:51.700Z,2.10
2023-03-27T15:51:19.309Z,2.80
2023-03-27T15:53:49.595Z,2.43
2023-03-27T15:56:36.193Z,2.40
2023-03-27T15:59:07.464Z,3.03
2023-03-27T16:01:52.280Z,2.60
2023-03-27T16:04:25.872Z,3.13
2023-03-27T16:07:17.880Z,3.00
2023-03-27T16:09:56.557Z,2.60
2023-03-27T16:12:32.236Z,3.00
2023-03-27T16:15:00.969Z,3.00
2023-03-27T16:17:32.400Z,2.60
2023-03-27T16:20:07.386Z,3.10
2023-03-27T16:22:37.339Z,2.90
2023-03-27T16:25:10.454Z,3.10
2023-03-27T16:27:50.856Z,2.30
2023-03-27T16:30:29.648Z,2.30
2023-03-27T16:32:57.897Z,2.37
2023-03-27T16:35:27.200Z,2.43
2023-03-27T16:37:55.465Z,2.53
2023-03-27T16:40:23.604Z,2.60
2023-03-27T16:42:51.564Z,2.37
2023-03-27T16:46:13.087Z,2.50
2023-03-27T16:48:40.782Z,2.27
2023-03-27T16:51:08.131Z,2.80
2023-03-27T16:53:35.571Z,2.70
2023-03-27T16:56:02.843Z,2.73
2023-03-27T16:58:31.992Z,2.53
2023-03-27T17:00:59.413Z,2.77
2023-03-27T17:03:26.779Z,6.40
2023-03-27T17:05:59.843Z,3.00
2023-03-27T17:08:30.085Z,2.87
2023-03-27T17:11:10.526Z,2.80
2023-03-27T17:13:42.387Z,2.70
2023-03-27T17:16:10.695Z,3.30
2023-03-27T17:18:38.037Z,3.00
2023-03-27T17:21:05.706Z,3.60
2023-03-27T17:23:33.367Z,2.80
2023-03-27T17:26:03.462Z,2.73
2023-03-27T17:28:31.529Z,2.97
2023-03-27T17:31:04.497Z,3.10
2023-03-27T17:33:33.935Z,3.17
2023-03-27T17:36:06.509Z,3.00
2023-03-27T17:38:34.654Z,3.27
2023-03-27T17:41:03.477Z,2.60
2023-03-27T17:43:30.817Z,2.67
2023-03-27T17:45:58.520Z,2.60
2023-03-27T17:48:25.984Z,2.50
2023-03-27T17:51:05.551Z,2.83
2023-03-27T17:53:37.270Z,2.77
2023-03-27T17:56:04.929Z,2.50
2023-03-27T17:58:34.019Z,2.80
2023-03-27T18:01:11.417Z,2.90
2023-03-27T18:03:38.774Z,3.00
2023-03-27T18:06:06.436Z,2.80
2023-03-27T18:08:34.263Z,2.77
2023-03-27T18:11:01.613Z,2.67
2023-03-27T18:13:31.019Z,2.90
2023-03-27T18:15:58.602Z,2.77
2023-03-27T18:18:26.482Z,3.20
2023-03-27T18:20:54.807Z,3.20
2023-03-27T18:23:22.245Z,3.03
2023-03-27T18:26:16.502Z,2.63
2023-03-27T18:28:44.032Z,3.03
2023-03-27T18:31:13.162Z,2.80
2023-03-27T18:33:40.778Z,2.90
2023-03-27T18:36:12.444Z,3.13
2023-03-27T18:38:42.971Z,3.10
2023-03-27T18:41:11.794Z,2.80
2023-03-27T18:43:39.418Z,2.67
2023-03-27T18:46:07.898Z,3.23
2023-03-27T18:48:35.713Z,2.70
2023-03-27T18:51:05.647Z,3.30
2023-03-27T18:53:32.947Z,2.60
2023-03-27T18:56:01.574Z,3.30
2023-03-27T18:58:29.773Z,3.23
2023-03-27T19:00:57.521Z,2.60
2023-03-27T19:03:30.677Z,3.10
2023-03-27T19:06:01.174Z,2.70
2023-03-27T19:08:28.577Z,3.00
2023-03-27T19:10:57.306Z,3.17
2023-03-27T19:13:44.178Z,2.90
2023-03-27T19:16:32.886Z,3.00
2023-03-27T19:19:19.199Z,2.90
2023-03-27T19:21:53.349Z,3.20
2023-03-27T19:24:36.448Z,3.57
2023-03-27T19:27:04.166Z,3.13
2023-03-27T19:29:32.012Z,3.13
2023-03-27T19:31:59.706Z,3.37
2023-03-27T19:34:40.085Z,3.33
2023-03-27T19:37:10.865Z,3.30
2023-03-27T19:39:38.232Z,3.40
2023-03-27T19:42:06.023Z,3.17
2023-03-27T19:44:37.956Z,3.70
2023-03-27T19:47:06.103Z,3.70
2023-03-27T19:49:33.660Z,3.10
2023-03-27T21:53:00.942Z,4.50
2023-03-27T21:55:28.544Z,3.80
2023-03-27T21:57:56.527Z,4.07
2023-03-27T22:00:25.009Z,3.70
2023-03-27T22:02:53.131Z,4.20
2023-03-27T22:05:21.909Z,4.07
2023-03-27T22:07:49.935Z,3.80
2023-03-27T22:10:17.755Z,4.27
2023-03-27T22:12:45.303Z,6.50
2023-03-27T22:15:12.791Z,4.03
2023-03-27T22:17:41.100Z,4.17
2023-03-27T22:20:09.544Z,4.33
2023-03-27T22:22:38.276Z,3.83
2023-03-27T22:25:06.385Z,3.77
2023-03-27T22:27:34.487Z,3.90
2023-03-27T22:30:02.064Z,3.97
2023-03-27T22:32:31.053Z,4.23
2023-03-27T22:34:58.740Z,4.07
2023-03-27T22:37:26.324Z,3.80
2023-03-27T22:39:53.833Z,3.73
2023-03-27T22:42:21.760Z,3.70
2023-03-27T22:44:49.306Z,3.60
2023-03-27T22:47:17.880Z,3.97
2023-03-27T22:49:45.472Z,3.50
2023-03-27T22:52:13.319Z,3.60
2023-03-27T22:54:41.339Z,3.60
2023-03-27T22:57:09.368Z,3.50
2023-03-27T22:59:37.213Z,3.57
2023-03-27T23:02:04.943Z,3.27
2023-03-27T23:04:32.840Z,3.90
2023-03-27T23:07:01.631Z,4.27
2023-03-27T23:09:29.311Z,3.37
2023-03-27T23:11:56.970Z,3.87
2023-03-27T23:14:25.456Z,3.50
2023-03-27T23:16:53.520Z,3.63
2023-03-27T23:19:21.456Z,3.30
2023-03-27T23:21:49.273Z,3.60
2023-03-27T23:24:16.998Z,3.47
2023-03-27T23:26:45.385Z,4.07
2023-03-27T23:29:42.778Z,3.47
2023-03-27T23:32:10.559Z,3.57
2023-03-27T23:34:38.622Z,3.90
2023-03-27T23:37:06.208Z,3.97
2023-03-27T23:39:33.817Z,3.40
2023-03-27T23:42:01.276Z,3.30
2023-03-27T23:44:29.152Z,3.23
2023-03-27T23:46:56.626Z,4.27
2023-03-27T23:49:24.176Z,3.63
2023-03-27T23:51:51.692Z,3.70
2023-03-27T23:54:19.663Z,3.60
2023-03-27T23:56:47.244Z,3.93
2023-03-27T23:59:14.910Z,3.87
